Time;durP1;ratioP1;P1;durP2;ratioP2;P2;SDS_P1;SDS_P2;PMS_P1;PMS_P2;Temp;Humidity;BMP_temperature;BMP_pressure;BME280_temperature;BME280_humidity;BME280_pressure;Samples;Min_cycle;Max_cycle;Signal;HPM_P1;HPM_P2
2023/05/31 00:02:12;;;;;;;0.20;0.20;;;;;;;;;;5138878;27;20290;-46
2023/05/31 00:04:38;;;;;;;0.20;0.20;;;;;;;;;;5120323;27;20050;-47
2023/05/31 00:07:04;;;;;;;0.20;0.20;;;;;;;;;;5138340;27;20055;-48
2023/05/31 00:09:30;;;;;;;0.20;0.20;;;;;;;;;;5138811;27;20054;-46
2023/05/31 00:11:55;;;;;;;0.20;0.20;;;;;;;;;;5138722;27;20127;-47
2023/05/31 00:14:21;;;;;;;0.20;0.20;;;;;;;;;;5138208;27;20046;-47
2023/05/31 00:16:47;;;;;;;0.20;0.20;;;;;;;;;;5119969;27;20088;-46
2023/05/31 00:19:32;;;;;;;0.20;0.20;;;;;;;;;;5123314;27;20054;-46
2023/05/31 00:21:58;;;;;;;0.20;0.20;;;;;;;;;;5138737;27;20084;-46
2023/05/31 00:24:23;;;;;;;0.20;0.20;;;;;;;;;;5138443;27;20436;-46
2023/05/31 00:26:49;;;;;;;0.20;0.20;;;;;;;;;;5129024;27;20062;-47
2023/05/31 00:29:14;;;;;;;0.20;0.20;;;;;;;;;;5117731;28;20039;-48
2023/05/31 00:31:40;;;;;;;0.20;0.20;;;;;;;;;;5137293;27;20046;-47
2023/05/31 00:34:06;;;;;;;0.20;0.20;;;;;;;;;;5138364;27;20046;-47
2023/05/31 00:36:32;;;;;;;0.20;0.20;;;;;;;;;;5137992;27;20391;-46
2023/05/31 00:38:57;;;;;;;0.20;0.20;;;;;;;;;;5119649;27;20046;-46
2023/05/31 00:41:23;;;;;;;0.28;0.28;;;;;;;;;;5138392;27;20178;-47
2023/05/31 00:43:49;;;;;;;0.20;0.20;;;;;;;;;;5137973;27;20051;-49
2023/05/31 00:46:23;;;;;;;0.20;0.20;;;;;;;;;;5122732;27;20254;-48
2023/05/31 00:48:48;;;;;;;0.20;0.20;;;;;;;;;;5127987;27;20308;-46
2023/05/31 00:51:14;;;;;;;0.20;0.20;;;;;;;;;;5138170;27;20085;-47
2023/05/31 00:53:40;;;;;;;0.20;0.20;;;;;;;;;;5138154;27;20047;-46
2023/05/31 00:56:05;;;;;;;0.20;0.20;;;;;;;;;;5138025;27;20334;-48
2023/05/31 00:58:34;;;;;;;0.20;0.20;;;;;;;;;;5137709;27;20070;-49
2023/05/31 01:01:00;;;;;;;0.20;0.20;;;;;;;;;;5137361;27;20058;-48
2023/05/31 01:03:26;;;;;;;0.20;0.20;;;;;;;;;;5138101;27;20246;-48
2023/05/31 01:05:52;;;;;;;0.20;0.20;;;;;;;;;;5137182;27;20039;-48
2023/05/31 01:08:18;;;;;;;0.20;0.20;;;;;;;;;;5137641;27;20049;-48
2023/05/31 01:10:44;;;;;;;0.20;0.20;;;;;;;;;;5137618;27;20073;-46
2023/05/31 01:13:30;;;;;;;0.20;0.20;;;;;;;;;;5137784;27;20490;-47
2023/05/31 01:15:57;;;;;;;0.20;0.20;;;;;;;;;;5122002;27;20054;-46
2023/05/31 01:18:31;;;;;;;0.20;0.20;;;;;;;;;;5137774;27;20080;-46
2023/05/31 01:21:01;;;;;;;0.20;0.20;;;;;;;;;;5119453;27;20491;-47
2023/05/31 01:23:47;;;;;;;0.20;0.20;;;;;;;;;;5137371;27;20060;-46
2023/05/31 01:26:32;;;;;;;0.20;0.20;;;;;;;;;;5121864;27;20575;-46
2023/05/31 01:29:03;;;;;;;0.20;0.20;;;;;;;;;;5110035;28;20425;-46
2023/05/31 01:31:30;;;;;;;0.20;0.20;;;;;;;;;;5134416;27;20074;-48
2023/05/31 01:33:55;;;;;;;0.20;0.20;;;;;;;;;;5137234;27;20129;-48
2023/05/31 01:36:21;;;;;;;0.20;0.20;;;;;;;;;;5136947;27;20050;-47
2023/05/31 01:38:46;;;;;;;0.20;0.20;;;;;;;;;;5136637;27;20102;-47
2023/05/31 01:41:13;;;;;;;0.20;0.20;;;;;;;;;;5136658;27;20106;-47
2023/05/31 01:43:41;;;;;;;0.20;0.20;;;;;;;;;;5136871;27;20478;-46
2023/05/31 01:46:07;;;;;;;0.10;0.10;;;;;;;;;;5116421;27;20510;-47
2023/05/31 01:48:33;;;;;;;0.20;0.20;;;;;;;;;;5113268;27;20104;-46
2023/05/31 01:51:00;;;;;;;0.20;0.20;;;;;;;;;;5129179;27;20046;-47
2023/05/31 01:53:25;;;;;;;0.20;0.20;;;;;;;;;;5136933;27;20057;-47
2023/05/31 01:55:52;;;;;;;0.20;0.20;;;;;;;;;;5137144;27;20047;-49
2023/05/31 01:58:17;;;;;;;0.20;0.20;;;;;;;;;;5136726;27;20046;-47
2023/05/31 02:00:43;;;;;;;0.20;0.20;;;;;;;;;;5136472;27;20466;-47
2023/05/31 02:03:09;;;;;;;0.20;0.20;;;;;;;;;;5136819;27;20145;-47
2023/05/31 02:05:35;;;;;;;0.20;0.20;;;;;;;;;;5137697;27;20316;-48
2023/05/31 02:08:00;;;;;;;0.20;0.20;;;;;;;;;;5136091;27;20422;-50
2023/05/31 02:10:26;;;;;;;0.20;0.20;;;;;;;;;;5136601;27;20478;-50
2023/05/31 02:12:54;;;;;;;0.10;0.10;;;;;;;;;;5136764;27;20308;-48
2023/05/31 02:15:20;;;;;;;0.20;0.20;;;;;;;;;;5137298;27;20406;-46
2023/05/31 02:17:50;;;;;;;0.20;0.20;;;;;;;;;;5136605;27;20426;-46
2023/05/31 02:20:16;;;;;;;0.20;0.20;;;;;;;;;;5118902;27;20047;-47
2023/05/31 02:22:42;;;;;;;0.13;0.13;;;;;;;;;;5118256;27;20259;-46
2023/05/31 02:25:09;;;;;;;0.10;0.10;;;;;;;;;;5137336;27;20494;-46
2023/05/31 02:27:35;;;;;;;0.10;0.10;;;;;;;;;;5118325;27;20078;-48
2023/05/31 02:30:01;;;;;;;0.20;0.20;;;;;;;;;;5130443;27;20116;-46
2023/05/31 02:32:26;;;;;;;0.10;0.10;;;;;;;;;;5116067;28;20521;-46
2023/05/31 02:34:52;;;;;;;0.20;0.20;;;;;;;;;;5116192;28;20468;-48
2023/05/31 02:37:17;;;;;;;0.20;0.20;;;;;;;;;;5116268;28;20046;-47
2023/05/31 02:39:43;;;;;;;0.20;0.20;;;;;;;;;;5118154;27;20055;-45
2023/05/31 02:42:08;;;;;;;0.20;0.20;;;;;;;;;;5136314;27;20074;-46
2023/05/31 02:44:34;;;;;;;0.20;0.20;;;;;;;;;;5136390;27;20051;-46
2023/05/31 02:47:00;;;;;;;0.20;0.20;;;;;;;;;;5116894;27;20066;-47
2023/05/31 02:49:25;;;;;;;0.20;0.20;;;;;;;;;;5103847;27;20058;-46
2023/05/31 02:51:51;;;;;;;0.20;0.20;;;;;;;;;;5136221;27;20445;-46
2023/05/31 02:54:16;;;;;;;0.10;0.10;;;;;;;;;;5136748;27;20049;-51
2023/05/31 02:56:42;;;;;;;0.17;0.17;;;;;;;;;;5136929;27;20470;-48
2023/05/31 02:59:07;;;;;;;0.20;0.20;;;;;;;;;;5136606;27;20475;-52
2023/05/31 03:01:33;;;;;;;0.20;0.20;;;;;;;;;;5136185;27;20050;-49
2023/05/31 03:03:59;;;;;;;0.20;0.20;;;;;;;;;;5136254;27;20095;-49
2023/05/31 03:06:24;;;;;;;0.20;0.20;;;;;;;;;;5133071;27;20475;-48
2023/05/31 03:08:50;;;;;;;0.20;0.20;;;;;;;;;;5060861;28;20124;-47
2023/05/31 03:11:15;;;;;;;0.20;0.20;;;;;;;;;;5059454;27;20295;-48
2023/05/31 03:13:41;;;;;;;0.20;0.20;;;;;;;;;;5082985;27;20043;-49
2023/05/31 03:16:06;;;;;;;0.20;0.20;;;;;;;;;;5089746;28;20078;-50
2023/05/31 03:18:32;;;;;;;0.13;0.13;;;;;;;;;;5099643;28;20039;-50
2023/05/31 03:20:58;;;;;;;0.20;0.20;;;;;;;;;;5127979;27;20468;-50
2023/05/31 03:23:23;;;;;;;0.20;0.20;;;;;;;;;;5110429;27;20269;-48
2023/05/31 03:25:49;;;;;;;0.20;0.20;;;;;;;;;;5094895;28;20563;-49
2023/05/31 03:28:14;;;;;;;0.20;0.20;;;;;;;;;;5114411;27;20058;-50
2023/05/31 03:30:40;;;;;;;0.10;0.10;;;;;;;;;;5118452;27;20494;-49
2023/05/31 03:33:06;;;;;;;0.20;0.20;;;;;;;;;;5118329;28;20095;-50
2023/05/31 03:35:31;;;;;;;0.20;0.20;;;;;;;;;;5118760;27;20043;-51
2023/05/31 03:37:57;;;;;;;0.10;0.10;;;;;;;;;;5102750;28;20123;-51
2023/05/31 03:40:22;;;;;;;0.17;0.17;;;;;;;;;;5114845;27;20046;-50
2023/05/31 03:42:48;;;;;;;0.20;0.20;;;;;;;;;;5135559;27;20387;-50
2023/05/31 03:45:13;;;;;;;0.10;0.10;;;;;;;;;;5118126;28;20068;-48
2023/05/31 03:47:40;;;;;;;0.20;0.20;;;;;;;;;;5126806;27;20078;-51
2023/05/31 03:50:06;;;;;;;0.20;0.20;;;;;;;;;;5124851;27;20099;-48
2023/05/31 03:52:31;;;;;;;0.17;0.17;;;;;;;;;;5118214;27;20414;-51
2023/05/31 03:54:57;;;;;;;0.20;0.20;;;;;;;;;;5118422;28;20051;-48
2023/05/31 03:57:23;;;;;;;0.20;0.20;;;;;;;;;;5118398;27;20059;-48
2023/05/31 03:59:48;;;;;;;0.20;0.20;;;;;;;;;;5122217;27;20443;-49
2023/05/31 04:02:14;;;;;;;0.20;0.20;;;;;;;;;;5139371;27;20201;-48
2023/05/31 04:04:40;;;;;;;0.20;0.20;;;;;;;;;;5139543;27;20399;-47
2023/05/31 04:07:05;;;;;;;0.20;0.20;;;;;;;;;;5138423;27;20102;-48
2023/05/31 04:09:31;;;;;;;0.20;0.20;;;;;;;;;;5120297;27;20050;-49
2023/05/31 04:11:56;;;;;;;0.10;0.10;;;;;;;;;;5138338;27;20100;-48
2023/05/31 04:14:22;;;;;;;0.20;0.20;;;;;;;;;;5138065;27;20054;-49
2023/05/31 04:16:47;;;;;;;0.20;0.20;;;;;;;;;;5138624;27;20086;-50
2023/05/31 04:19:13;;;;;;;0.20;0.20;;;;;;;;;;5138588;27;20046;-47
2023/05/31 04:21:39;;;;;;;0.30;0.30;;;;;;;;;;5138773;27;20051;-49
2023/05/31 04:24:05;;;;;;;0.20;0.20;;;;;;;;;;5138716;27;20047;-48
2023/05/31 04:26:32;;;;;;;0.20;0.20;;;;;;;;;;5138773;27;20349;-50
2023/05/31 04:28:57;;;;;;;0.20;0.20;;;;;;;;;;5138716;27;20067;-52
2023/05/31 04:31:28;;;;;;;0.20;0.20;;;;;;;;;;5136548;27;20047;-48
2023/05/31 04:34:18;;;;;;;0.20;0.20;;;;;;;;;;5102691;28;20047;-48
2023/05/31 04:36:48;;;;;;;0.20;0.20;;;;;;;;;;5117991;27;20236;-51
2023/05/31 04:39:15;;;;;;;0.20;0.20;;;;;;;;;;5117275;27;20047;-48
2023/05/31 04:41:41;;;;;;;0.20;0.20;;;;;;;;;;5137777;27;20253;-49
2023/05/31 04:44:07;;;;;;;0.20;0.20;;;;;;;;;;5138132;27;20517;-49
2023/05/31 04:46:32;;;;;;;0.20;0.20;;;;;;;;;;5110803;27;20038;-51
2023/05/31 04:49:00;;;;;;;0.20;0.20;;;;;;;;;;5121221;27;20051;-49
2023/05/31 04:51:26;;;;;;;0.10;0.10;;;;;;;;;;5134993;27;20062;-47
2023/05/31 04:53:52;;;;;;;0.20;0.20;;;;;;;;;;5121260;27;20418;-48
2023/05/31 04:56:18;;;;;;;0.20;0.20;;;;;;;;;;5117388;28;20054;-48
2023/05/31 04:58:43;;;;;;;0.20;0.20;;;;;;;;;;5116989;28;20058;-48
2023/05/31 05:01:09;;;;;;;0.20;0.20;;;;;;;;;;5132060;27;20050;-51
2023/05/31 05:03:35;;;;;;;0.20;0.20;;;;;;;;;;5117258;27;20039;-51
2023/05/31 05:06:02;;;;;;;0.20;0.20;;;;;;;;;;5114682;28;20039;-52
2023/05/31 05:08:27;;;;;;;0.20;0.20;;;;;;;;;;5098386;28;20078;-50
2023/05/31 05:10:53;;;;;;;0.10;0.10;;;;;;;;;;5118917;27;20101;-47
2023/05/31 05:13:18;;;;;;;0.20;0.20;;;;;;;;;;5116934;28;20120;-49
2023/05/31 05:15:44;;;;;;;0.20;0.20;;;;;;;;;;5116600;28;20084;-51
2023/05/31 05:18:10;;;;;;;0.20;0.20;;;;;;;;;;5114195;28;20137;-47
2023/05/31 05:20:35;;;;;;;0.20;0.20;;;;;;;;;;5124580;27;20110;-52
2023/05/31 05:23:06;;;;;;;0.20;0.20;;;;;;;;;;5123419;27;20104;-50
2023/05/31 05:25:32;;;;;;;0.20;0.20;;;;;;;;;;5115915;28;20085;-50
2023/05/31 05:27:58;;;;;;;0.20;0.20;;;;;;;;;;5090726;28;20473;-53
2023/05/31 05:30:23;;;;;;;0.20;0.20;;;;;;;;;;5113266;27;20285;-53
2023/05/31 05:32:49;;;;;;;0.10;0.10;;;;;;;;;;5109462;27;20077;-52
2023/05/31 05:35:14;;;;;;;0.20;0.20;;;;;;;;;;5113239;27;20086;-56
2023/05/31 05:37:40;;;;;;;0.20;0.20;;;;;;;;;;5115567;27;20365;-50
2023/05/31 05:40:07;;;;;;;0.20;0.20;;;;;;;;;;5107147;27;20081;-53
2023/05/31 05:42:36;;;;;;;0.20;0.20;;;;;;;;;;5105974;27;20296;-53
2023/05/31 05:45:03;;;;;;;0.20;0.20;;;;;;;;;;5109499;27;20038;-47
2023/05/31 05:47:29;;;;;;;0.20;0.20;;;;;;;;;;5118859;27;20096;-52
2023/05/31 05:49:54;;;;;;;0.20;0.20;;;;;;;;;;5113190;27;20043;-48
2023/05/31 05:52:20;;;;;;;0.20;0.20;;;;;;;;;;5094182;27;20084;-52
2023/05/31 05:54:45;;;;;;;0.38;0.38;;;;;;;;;;5098220;28;20043;-45
2023/05/31 05:57:11;;;;;;;0.20;0.20;;;;;;;;;;5105303;27;20105;-51
2023/05/31 05:59:37;;;;;;;0.20;0.20;;;;;;;;;;5098545;27;20039;-51
2023/05/31 06:02:03;;;;;;;0.20;0.20;;;;;;;;;;5111842;27;20148;-50
2023/05/31 06:04:28;;;;;;;0.20;0.20;;;;;;;;;;5096628;28;20101;-50
2023/05/31 06:06:54;;;;;;;0.20;0.20;;;;;;;;;;5099122;27;20496;-47
2023/05/31 06:09:20;;;;;;;0.20;0.20;;;;;;;;;;5111764;28;20051;-52
2023/05/31 06:11:45;;;;;;;0.20;0.20;;;;;;;;;;5106635;27;20149;-51
2023/05/31 06:14:11;;;;;;;0.20;0.20;;;;;;;;;;5106314;28;20051;-51
2023/05/31 06:16:36;;;;;;;0.20;0.20;;;;;;;;;;5110468;27;20417;-53
2023/05/31 06:19:02;;;;;;;0.20;0.20;;;;;;;;;;5108319;28;20484;-51
2023/05/31 06:21:27;;;;;;;0.10;0.10;;;;;;;;;;5112296;27;20055;-52
2023/05/31 06:23:53;;;;;;;0.20;0.20;;;;;;;;;;5093610;28;20505;-50
2023/05/31 06:26:19;;;;;;;0.20;0.20;;;;;;;;;;5080669;28;20074;-51
2023/05/31 06:28:45;;;;;;;0.20;0.20;;;;;;;;;;5102623;27;20047;-51
2023/05/31 06:31:10;;;;;;;0.20;0.20;;;;;;;;;;5085348;28;20050;-51
2023/05/31 06:33:36;;;;;;;0.13;0.13;;;;;;;;;;5101961;28;20043;-48
2023/05/31 06:36:02;;;;;;;0.20;0.20;;;;;;;;;;5106195;28;20109;-51
2023/05/31 06:38:27;;;;;;;0.20;0.20;;;;;;;;;;5107563;28;20039;-55
2023/05/31 06:40:53;;;;;;;0.20;0.20;;;;;;;;;;5106661;27;20058;-53
2023/05/31 06:43:18;;;;;;;0.20;0.20;;;;;;;;;;5104691;28;20043;-53
2023/05/31 06:45:44;;;;;;;0.20;0.20;;;;;;;;;;5106111;28;20765;-52
2023/05/31 06:48:10;;;;;;;0.20;0.20;;;;;;;;;;5096981;27;20047;-53
2023/05/31 06:50:35;;;;;;;0.20;0.20;;;;;;;;;;5099085;27;20157;-52
2023/05/31 06:53:01;;;;;;;0.20;0.20;;;;;;;;;;5096616;27;20078;-52
2023/05/31 06:55:27;;;;;;;0.20;0.20;;;;;;;;;;5083649;27;20044;-48
2023/05/31 06:57:52;;;;;;;0.20;0.20;;;;;;;;;;5089415;27;20502;-50
2023/05/31 07:00:19;;;;;;;0.10;0.10;;;;;;;;;;5088965;27;20098;-51
2023/05/31 07:02:44;;;;;;;0.20;0.20;;;;;;;;;;5088711;27;20063;-53
2023/05/31 07:05:10;;;;;;;0.20;0.20;;;;;;;;;;5088710;28;20157;-48
2023/05/31 07:07:35;;;;;;;0.20;0.20;;;;;;;;;;5087095;28;20150;-48
2023/05/31 07:10:01;;;;;;;0.20;0.20;;;;;;;;;;5080802;27;20073;-50
2023/05/31 07:12:27;;;;;;;0.20;0.20;;;;;;;;;;5082088;28;20089;-49
2023/05/31 07:14:52;;;;;;;0.20;0.20;;;;;;;;;;5089579;27;20484;-48
2023/05/31 07:17:18;;;;;;;0.20;0.20;;;;;;;;;;5095376;28;20086;-49
2023/05/31 07:19:44;;;;;;;0.30;0.30;;;;;;;;;;5093644;27;20109;-51
2023/05/31 07:22:10;;;;;;;0.20;0.20;;;;;;;;;;5101001;27;20066;-47
2023/05/31 07:24:35;;;;;;;0.20;0.20;;;;;;;;;;5102652;27;20043;-53
2023/05/31 07:27:01;;;;;;;0.20;0.20;;;;;;;;;;5087859;27;20930;-54
2023/05/31 07:29:26;;;;;;;0.20;0.20;;;;;;;;;;5094196;27;20055;-54
2023/05/31 07:31:52;;;;;;;0.20;0.20;;;;;;;;;;5093878;27;20055;-51
2023/05/31 07:34:17;;;;;;;0.20;0.20;;;;;;;;;;5094873;27;20039;-49
2023/05/31 07:36:43;;;;;;;0.20;0.20;;;;;;;;;;5094633;27;20449;-49
2023/05/31 07:39:10;;;;;;;0.32;0.20;;;;;;;;;;5093938;28;20043;-49
2023/05/31 07:41:36;;;;;;;0.10;0.10;;;;;;;;;;5089390;27;20047;-51
2023/05/31 07:44:02;;;;;;;0.20;0.20;;;;;;;;;;5094942;28;20063;-52
2023/05/31 07:46:28;;;;;;;0.20;0.20;;;;;;;;;;5095286;27;20035;-49
2023/05/31 07:48:54;;;;;;;0.20;0.20;;;;;;;;;;5083414;27;20081;-48
2023/05/31 07:51:20;;;;;;;0.20;0.20;;;;;;;;;;5072470;27;20039;-52
2023/05/31 07:53:46;;;;;;;3.40;0.30;;;;;;;;;;5094364;27;20180;-53
2023/05/31 07:56:12;;;;;;;0.20;0.20;;;;;;;;;;5101382;28;20385;-51
2023/05/31 07:58:38;;;;;;;0.20;0.20;;;;;;;;;;5099541;28;20859;-52
2023/05/31 08:01:04;;;;;;;0.20;0.20;;;;;;;;;;5070242;28;20155;-49
2023/05/31 08:03:31;;;;;;;0.20;0.20;;;;;;;;;;5093309;27;20061;-52
2023/05/31 08:05:56;;;;;;;0.20;0.20;;;;;;;;;;5090903;27;20043;-53
2023/05/31 08:08:22;;;;;;;0.20;0.20;;;;;;;;;;5089776;27;20311;-46
2023/05/31 08:10:48;;;;;;;0.10;0.10;;;;;;;;;;5063161;28;20133;-53
2023/05/31 08:13:14;;;;;;;0.20;0.20;;;;;;;;;;5088685;27;20057;-50
2023/05/31 08:15:39;;;;;;;0.20;0.20;;;;;;;;;;5094990;27;20114;-51
2023/05/31 08:18:05;;;;;;;0.20;0.20;;;;;;;;;;5089179;27;20047;-51
2023/05/31 08:20:31;;;;;;;0.20;0.20;;;;;;;;;;5098585;27;20073;-52
2023/05/31 08:22:58;;;;;;;0.20;0.20;;;;;;;;;;5092599;27;20059;-53
2023/05/31 08:25:23;;;;;;;0.20;0.20;;;;;;;;;;5098825;27;20138;-52
2023/05/31 08:27:50;;;;;;;0.20;0.20;;;;;;;;;;5095650;27;20167;-51
2023/05/31 08:30:15;;;;;;;0.20;0.20;;;;;;;;;;5098269;28;20631;-51
2023/05/31 08:32:41;;;;;;;0.20;0.20;;;;;;;;;;5086585;27;20138;-52
2023/05/31 08:35:08;;;;;;;0.20;0.20;;;;;;;;;;5083766;27;20045;-50
2023/05/31 08:37:35;;;;;;;0.20;0.20;;;;;;;;;;5082142;28;20063;-52
2023/05/31 08:40:01;;;;;;;0.20;0.20;;;;;;;;;;5074235;27;20625;-51
2023/05/31 08:42:31;;;;;;;0.10;0.10;;;;;;;;;;5093702;27;20061;-52
2023/05/31 08:44:57;;;;;;;0.20;0.20;;;;;;;;;;5096583;27;20043;-52
2023/05/31 08:47:25;;;;;;;0.20;0.20;;;;;;;;;;5092481;28;20518;-51
2023/05/31 08:49:52;;;;;;;0.10;0.10;;;;;;;;;;5083602;28;20460;-54
2023/05/31 08:52:18;;;;;;;0.20;0.20;;;;;;;;;;5098507;27;20062;-51
2023/05/31 08:54:44;;;;;;;0.20;0.20;;;;;;;;;;5097444;27;20491;-52
2023/05/31 08:57:11;;;;;;;0.20;0.20;;;;;;;;;;5102241;27;20519;-54
2023/05/31 08:59:36;;;;;;;0.20;0.20;;;;;;;;;;5097581;27;20172;-53
2023/05/31 09:02:02;;;;;;;0.20;0.20;;;;;;;;;;5100384;27;20146;-52
2023/05/31 09:04:28;;;;;;;0.20;0.20;;;;;;;;;;5079967;28;20055;-53
2023/05/31 09:06:54;;;;;;;0.20;0.20;;;;;;;;;;5097671;28;20072;-53
2023/05/31 09:09:20;;;;;;;0.20;0.20;;;;;;;;;;5096857;27;20046;-51
2023/05/31 09:11:46;;;;;;;0.20;0.20;;;;;;;;;;5082216;28;20047;-55
2023/05/31 09:14:11;;;;;;;0.20;0.20;;;;;;;;;;5082091;28;20073;-54
2023/05/31 09:16:37;;;;;;;0.20;0.20;;;;;;;;;;5097937;27;20069;-53
2023/05/31 09:19:04;;;;;;;0.20;0.20;;;;;;;;;;5089254;27;20047;-53
2023/05/31 09:21:37;;;;;;;0.20;0.20;;;;;;;;;;5101090;27;20419;-52
2023/05/31 09:24:03;;;;;;;0.20;0.20;;;;;;;;;;5097771;28;20497;-52
2023/05/31 09:26:28;;;;;;;0.20;0.20;;;;;;;;;;5100730;27;20562;-53
2023/05/31 09:28:54;;;;;;;0.20;0.20;;;;;;;;;;5097309;28;20054;-53
2023/05/31 09:31:20;;;;;;;0.20;0.20;;;;;;;;;;5095246;27;20316;-53
2023/05/31 09:33:47;;;;;;;0.20;0.20;;;;;;;;;;5076950;27;20039;-52
2023/05/31 09:36:14;;;;;;;0.20;0.20;;;;;;;;;;5083078;27;20666;-54
2023/05/31 09:38:39;;;;;;;0.20;0.20;;;;;;;;;;5089707;27;20077;-52
2023/05/31 09:41:13;;;;;;;0.20;0.20;;;;;;;;;;5088107;27;20059;-52
2023/05/31 09:43:39;;;;;;;0.20;0.20;;;;;;;;;;5081810;27;20237;-53
2023/05/31 09:46:10;;;;;;;0.10;0.10;;;;;;;;;;5092545;28;20163;-52
2023/05/31 09:48:36;;;;;;;0.20;0.20;;;;;;;;;;5087432;28;20054;-53
2023/05/31 09:51:02;;;;;;;0.20;0.20;;;;;;;;;;5098982;27;20396;-53
2023/05/31 09:53:27;;;;;;;0.20;0.20;;;;;;;;;;5097954;27;20092;-52
2023/05/31 09:55:53;;;;;;;0.20;0.20;;;;;;;;;;5089539;27;20081;-53
2023/05/31 09:58:33;;;;;;;0.22;0.22;;;;;;;;;;5099267;27;20050;-53
2023/05/31 10:00:59;;;;;;;0.20;0.20;;;;;;;;;;5099639;28;20062;-52
2023/05/31 10:03:27;;;;;;;0.20;0.20;;;;;;;;;;5101447;27;20761;-52
2023/05/31 10:05:53;;;;;;;0.20;0.20;;;;;;;;;;5086831;28;20059;-52
2023/05/31 10:08:20;;;;;;;0.20;0.20;;;;;;;;;;5100815;27;20296;-51
2023/05/31 10:10:45;;;;;;;0.20;0.20;;;;;;;;;;5084914;28;20047;-52
2023/05/31 10:13:13;;;;;;;0.20;0.20;;;;;;;;;;5099722;28;20073;-53
2023/05/31 10:15:39;;;;;;;0.20;0.20;;;;;;;;;;5103872;27;20085;-52
2023/05/31 10:18:09;;;;;;;0.15;0.15;;;;;;;;;;5100802;27;20434;-51
2023/05/31 10:20:38;;;;;;;0.20;0.20;;;;;;;;;;5102721;27;20251;-52
2023/05/31 10:23:05;;;;;;;0.13;0.13;;;;;;;;;;5098585;27;20043;-49
2023/05/31 10:25:35;;;;;;;0.20;0.20;;;;;;;;;;5092011;28;20314;-52
2023/05/31 10:28:06;;;;;;;0.20;0.20;;;;;;;;;;5092675;28;20060;-53
2023/05/31 10:30:34;;;;;;;0.20;0.20;;;;;;;;;;5094572;27;20614;-52
2023/05/31 10:33:03;;;;;;;0.20;0.20;;;;;;;;;;5094601;27;20047;-52
2023/05/31 10:35:29;;;;;;;0.20;0.20;;;;;;;;;;5095123;27;20059;-51
2023/05/31 10:37:55;;;;;;;0.20;0.20;;;;;;;;;;5092427;27;20397;-52
2023/05/31 10:40:23;;;;;;;0.20;0.20;;;;;;;;;;5092466;27;20275;-50
2023/05/31 10:42:54;;;;;;;0.20;0.20;;;;;;;;;;5084272;27;20487;-51
2023/05/31 10:45:23;;;;;;;0.10;0.10;;;;;;;;;;5086750;27;20313;-51
2023/05/31 10:47:51;;;;;;;0.20;0.20;;;;;;;;;;5042580;28;21736;-52
2023/05/31 10:50:18;;;;;;;0.10;0.10;;;;;;;;;;5065593;28;20119;-53
2023/05/31 10:52:47;;;;;;;0.20;0.20;;;;;;;;;;5073672;28;20173;-51
2023/05/31 10:55:17;;;;;;;0.20;0.20;;;;;;;;;;5083094;28;20074;-51
2023/05/31 10:57:43;;;;;;;0.10;0.10;;;;;;;;;;5056047;28;20047;-51
2023/05/31 11:00:11;;;;;;;0.20;0.20;;;;;;;;;;5075475;28;20083;-52
2023/05/31 11:02:37;;;;;;;;;;;;;;;;;;5071100;28;20043;-53
2023/05/31 11:05:22;;;;;;;0.20;0.20;;;;;;;;;;5076163;28;20022;-51
2023/05/31 11:07:49;;;;;;;0.20;0.20;;;;;;;;;;5059802;28;20066;-52
2023/05/31 11:10:32;;;;;;;0.20;0.20;;;;;;;;;;5077427;28;20489;-52
2023/05/31 11:13:02;;;;;;;0.20;0.20;;;;;;;;;;5081753;28;20051;-50
2023/05/31 11:15:44;;;;;;;0.20;0.20;;;;;;;;;;5067045;28;20435;-50
2023/05/31 11:18:14;;;;;;;0.20;0.20;;;;;;;;;;5078014;28;20112;-51
2023/05/31 11:20:39;;;;;;;0.20;0.20;;;;;;;;;;5082237;28;20067;-52
2023/05/31 11:26:16;;;;;;;0.20;0.20;;;;;;;;;;5136612;27;20212;-51
2023/05/31 11:29:01;;;;;;;0.20;0.20;;;;;;;;;;5126954;27;20547;-54
2023/05/31 11:31:47;;;;;;;0.20;0.20;;;;;;;;;;5119243;27;20346;-49
2023/05/31 11:34:29;;;;;;;0.20;0.20;;;;;;;;;;5112646;27;20050;-53
2023/05/31 11:36:58;;;;;;;0.20;0.20;;;;;;;;;;5124201;27;20168;-50
2023/05/31 11:39:24;;;;;;;0.20;0.20;;;;;;;;;;5117362;27;20073;-51
2023/05/31 11:41:51;;;;;;;0.20;0.20;;;;;;;;;;5127910;27;20470;-51
2023/05/31 11:44:20;;;;;;;0.20;0.20;;;;;;;;;;5136181;27;20061;-53
2023/05/31 11:46:46;;;;;;;0.20;0.20;;;;;;;;;;5139227;27;20236;-55
2023/05/31 11:49:13;;;;;;;0.10;0.10;;;;;;;;;;5136550;27;20200;-54
2023/05/31 11:51:43;;;;;;;0.10;0.10;;;;;;;;;;5125758;27;20080;-53
2023/05/31 11:54:11;;;;;;;0.20;0.20;;;;;;;;;;5133568;27;20038;-53
2023/05/31 11:56:37;;;;;;;0.20;0.20;;;;;;;;;;5139843;27;20047;-56
2023/05/31 11:59:02;;;;;;;0.65;0.40;;;;;;;;;;5141091;27;20440;-53
2023/05/31 12:01:34;;;;;;;0.20;0.20;;;;;;;;;;5134615;27;20288;-54
2023/05/31 12:04:00;;;;;;;0.20;0.20;;;;;;;;;;5130195;27;20141;-53
2023/05/31 12:06:26;;;;;;;0.20;0.20;;;;;;;;;;5134045;27;20099;-52
2023/05/31 12:08:53;;;;;;;0.20;0.20;;;;;;;;;;5146416;27;20046;-52
2023/05/31 12:11:18;;;;;;;0.20;0.20;;;;;;;;;;5143449;27;20149;-52
2023/05/31 12:13:44;;;;;;;0.20;0.20;;;;;;;;;;5136753;27;20478;-52
2023/05/31 12:16:09;;;;;;;0.20;0.20;;;;;;;;;;5152232;27;20129;-54
2023/05/31 12:18:36;;;;;;;0.10;0.10;;;;;;;;;;5141471;27;20042;-53
2023/05/31 12:21:11;;;;;;;0.20;0.20;;;;;;;;;;5140923;27;20208;-53
2023/05/31 12:23:53;;;;;;;0.20;0.20;;;;;;;;;;5113912;27;20150;-52
2023/05/31 12:26:18;;;;;;;0.20;0.20;;;;;;;;;;5119975;27;20383;-55
2023/05/31 12:28:45;;;;;;;0.20;0.20;;;;;;;;;;5102821;27;20567;-53
2023/05/31 12:31:10;;;;;;;0.20;0.20;;;;;;;;;;5114410;27;20058;-54
2023/05/31 12:33:36;;;;;;;0.20;0.20;;;;;;;;;;5110312;27;20043;-52
2023/05/31 12:36:03;;;;;;;0.20;0.20;;;;;;;;;;5098300;27;20418;-55
2023/05/31 12:38:29;;;;;;;0.20;0.20;;;;;;;;;;5086656;27;20511;-54
2023/05/31 12:40:55;;;;;;;0.10;0.10;;;;;;;;;;5089231;27;20055;-52
2023/05/31 12:43:20;;;;;;;0.20;0.20;;;;;;;;;;5096233;27;20496;-54
2023/05/31 12:45:46;;;;;;;0.20;0.20;;;;;;;;;;5100676;27;20376;-52
2023/05/31 12:48:12;;;;;;;0.20;0.20;;;;;;;;;;5100733;27;20460;-54
2023/05/31 12:50:45;;;;;;;0.20;0.20;;;;;;;;;;5101839;27;20047;-52
2023/05/31 12:53:11;;;;;;;0.20;0.20;;;;;;;;;;5104176;27;20035;-53
2023/05/31 12:55:36;;;;;;;0.20;0.20;;;;;;;;;;5108942;27;20092;-52
2023/05/31 12:58:02;;;;;;;0.20;0.20;;;;;;;;;;5106966;27;20122;-54
2023/05/31 13:00:31;;;;;;;0.20;0.20;;;;;;;;;;5104107;27;20035;-53
2023/05/31 13:02:57;;;;;;;0.10;0.10;;;;;;;;;;5110483;27;20074;-51
2023/05/31 13:05:25;;;;;;;0.10;0.10;;;;;;;;;;5109630;27;20043;-53
2023/05/31 13:07:51;;;;;;;0.17;0.17;;;;;;;;;;5109241;27;20529;-53
2023/05/31 13:10:17;;;;;;;0.20;0.20;;;;;;;;;;5107184;27;20043;-56
2023/05/31 13:12:42;;;;;;;0.10;0.10;;;;;;;;;;5110917;27;20116;-53
2023/05/31 13:15:08;;;;;;;0.20;0.20;;;;;;;;;;5110294;27;20046;-53
2023/05/31 13:17:33;;;;;;;0.20;0.20;;;;;;;;;;5108282;27;20527;-53
2023/05/31 13:19:59;;;;;;;0.10;0.10;;;;;;;;;;5110800;27;20110;-52
2023/05/31 13:22:38;;;;;;;0.10;0.10;;;;;;;;;;5104008;27;20050;-54
2023/05/31 13:25:05;;;;;;;0.20;0.20;;;;;;;;;;5107454;27;20342;-53
2023/05/31 13:27:30;;;;;;;0.10;0.10;;;;;;;;;;5098745;27;20059;-53
2023/05/31 13:29:56;;;;;;;0.20;0.20;;;;;;;;;;5107673;27;20042;-53
2023/05/31 13:32:21;;;;;;;0.20;0.20;;;;;;;;;;5107145;27;20567;-49
2023/05/31 13:34:47;;;;;;;0.20;0.20;;;;;;;;;;5107180;27;20098;-50
2023/05/31 13:37:13;;;;;;;0.10;0.10;;;;;;;;;;5107859;27;20047;-51
2023/05/31 13:39:38;;;;;;;0.10;0.10;;;;;;;;;;5107813;27;20470;-52
2023/05/31 13:42:04;;;;;;;0.10;0.10;;;;;;;;;;5110743;27;20054;-51
2023/05/31 13:44:29;;;;;;;0.20;0.20;;;;;;;;;;5109711;27;20254;-53
2023/05/31 13:46:55;;;;;;;0.20;0.20;;;;;;;;;;5109455;27;20505;-50
2023/05/31 13:49:21;;;;;;;0.15;0.15;;;;;;;;;;5109760;27;20047;-50
2023/05/31 13:51:46;;;;;;;0.20;0.20;;;;;;;;;;5112383;27;20051;-48
2023/05/31 13:54:13;;;;;;;0.20;0.20;;;;;;;;;;5110648;27;20050;-53
2023/05/31 13:56:38;;;;;;;0.20;0.20;;;;;;;;;;5108519;27;20070;-52
2023/05/31 13:59:04;;;;;;;0.20;0.20;;;;;;;;;;5112194;27;20047;-51
2023/05/31 14:01:29;;;;;;;0.20;0.20;;;;;;;;;;5111701;27;20307;-54
2023/05/31 14:03:55;;;;;;;0.10;0.10;;;;;;;;;;5112716;27;20051;-53
2023/05/31 14:06:21;;;;;;;0.20;0.20;;;;;;;;;;5111843;27;20039;-52
2023/05/31 14:08:46;;;;;;;0.20;0.20;;;;;;;;;;5111738;27;20107;-50
2023/05/31 14:11:13;;;;;;;0.20;0.20;;;;;;;;;;5111112;27;20537;-53
2023/05/31 14:13:39;;;;;;;0.20;0.20;;;;;;;;;;5111492;27;20047;-49
2023/05/31 14:16:05;;;;;;;0.15;0.15;;;;;;;;;;5112126;27;20043;-52
2023/05/31 14:18:30;;;;;;;0.20;0.20;;;;;;;;;;5112471;27;20047;-54
2023/05/31 14:20:56;;;;;;;0.20;0.20;;;;;;;;;;5110270;27;20039;-53
2023/05/31 14:23:21;;;;;;;0.20;0.20;;;;;;;;;;5110224;27;20054;-51
2023/05/31 14:25:47;;;;;;;0.20;0.20;;;;;;;;;;5111611;27;20459;-50
2023/05/31 14:28:12;;;;;;;0.10;0.10;;;;;;;;;;5110866;27;20067;-51
2023/05/31 14:30:38;;;;;;;0.13;0.13;;;;;;;;;;5112331;27;20062;-50
2023/05/31 14:33:04;;;;;;;0.10;0.10;;;;;;;;;;5108838;27;20122;-51
2023/05/31 14:35:30;;;;;;;0.20;0.20;;;;;;;;;;5110893;27;20039;-52
2023/05/31 14:37:56;;;;;;;0.20;0.20;;;;;;;;;;5110426;27;20123;-51
2023/05/31 14:40:41;;;;;;;0.10;0.10;;;;;;;;;;5105185;27;20507;-51
2023/05/31 14:43:07;;;;;;;0.20;0.20;;;;;;;;;;5109848;27;20267;-49
2023/05/31 14:45:32;;;;;;;0.20;0.20;;;;;;;;;;5111249;27;20444;-48